Time;durP1;ratioP1;P1;durP2;ratioP2;P2;SDS_P1;SDS_P2;PMS_P1;PMS_P2;Temp;Humidity;BMP_temperature;BMP_pressure;BME280_temperature;BME280_humidity;BME280_pressure;Samples;Min_cycle;Max_cycle;Signal;HPM_P1;HPM_P2
2024/01/24 00:00:24;;;;;;;8.90;4.97;;;;;;;0.90;58.62;100084.78;5073077;28;20210;-86
2024/01/24 00:02:50;;;;;;;15.67;6.67;;;;;;;0.66;58.84;100082.13;5073326;28;20585;-86
2024/01/24 00:05:16;;;;;;;13.43;4.73;;;;;;;0.71;59.10;100073.56;5055260;28;20697;-86
2024/01/24 00:07:41;;;;;;;9.73;4.93;;;;;;;0.79;58.66;100081.31;5053777;28;20180;-86
2024/01/24 00:10:07;;;;;;;10.57;5.17;;;;;;;0.66;59.21;100071.81;5052910;28;20783;-87
2024/01/24 00:12:33;;;;;;;8.73;4.90;;;;;;;0.71;59.15;100070.13;5052932;28;20184;-86
2024/01/24 00:14:59;;;;;;;11.70;5.93;;;;;;;0.74;59.79;100083.88;5070017;28;20845;-86
2024/01/24 00:17:24;;;;;;;10.07;4.70;;;;;;;0.80;59.76;100088.19;5072828;28;20195;-86
2024/01/24 00:19:50;;;;;;;10.30;4.13;;;;;;;0.90;58.92;100087.34;5072632;28;20785;-86
2024/01/24 00:22:15;;;;;;;9.07;5.03;;;;;;;0.87;59.23;100090.78;5072412;28;20183;-86
2024/01/24 00:24:41;;;;;;;12.33;5.47;;;;;;;0.89;58.82;100103.72;5072790;28;20225;-86
2024/01/24 00:27:06;;;;;;;11.23;4.53;;;;;;;0.91;58.95;100102.84;5073087;28;20625;-87
2024/01/24 00:29:32;;;;;;;14.27;5.40;;;;;;;0.90;59.33;100100.25;5054918;28;20554;-87
2024/01/24 00:31:57;;;;;;;7.43;4.57;;;;;;;0.85;58.86;100107.13;5054636;28;20185;-87
2024/01/24 00:34:23;;;;;;;10.37;4.33;;;;;;;0.88;59.24;100117.47;5052770;28;20177;-87
2024/01/24 00:36:51;;;;;;;11.43;5.00;;;;;;;0.90;59.07;100123.47;5072556;28;20204;-86
2024/01/24 00:39:17;;;;;;;10.20;4.83;;;;;;;0.92;59.04;100119.19;5072302;28;20362;-87
2024/01/24 00:41:42;;;;;;;14.33;5.50;;;;;;;0.91;59.28;100122.63;5072998;28;20903;-87
2024/01/24 00:44:08;;;;;;;11.37;5.93;;;;;;;0.88;58.79;100120.03;5072576;28;20608;-87
2024/01/24 00:46:33;;;;;;;9.53;5.10;;;;;;;0.96;58.65;100115.75;5072485;28;20210;-87
2024/01/24 00:48:59;;;;;;;22.13;6.80;;;;;;;0.88;58.92;100122.63;5072871;28;20499;-87
2024/01/24 00:51:24;;;;;;;13.10;5.40;;;;;;;0.86;59.09;100117.47;5072574;28;20550;-86
2024/01/24 00:53:54;;;;;;;15.93;8.03;;;;;;;0.85;58.92;100113.16;5053229;28;20554;-87
2024/01/24 00:56:20;;;;;;;19.27;8.40;;;;;;;0.86;58.67;100114.03;5052547;28;20188;-86
2024/01/24 00:58:46;;;;;;;21.23;5.30;;;;;;;0.87;58.66;100120.88;5057946;28;20431;-87
2024/01/24 01:01:12;;;;;;;17.20;8.47;;;;;;;0.81;59.24;100126.06;5072437;28;20480;-87
2024/01/24 01:03:38;;;;;;;19.87;7.83;;;;;;;0.83;59.42;100120.03;5054732;28;20269;-87
2024/01/24 01:06:04;;;;;;;14.90;6.53;;;;;;;0.92;58.94;100119.19;5072345;28;20197;-86
2024/01/24 01:08:30;;;;;;;15.20;7.37;;;;;;;0.98;58.49;100116.63;5072350;28;20461;-87
2024/01/24 01:10:55;;;;;;;11.03;5.90;;;;;;;0.79;58.60;100107.09;5067813;28;20474;-86
2024/01/24 01:13:21;;;;;;;17.30;6.43;;;;;;;0.84;58.51;100110.59;5072631;28;20633;-87
2024/01/24 01:15:47;;;;;;;13.43;5.67;;;;;;;0.90;58.96;100105.41;5072337;28;20187;-87
2024/01/24 01:18:12;;;;;;;13.03;5.80;;;;;;;0.81;59.10;100110.59;5072167;28;20644;-86
2024/01/24 01:20:37;;;;;;;10.70;5.20;;;;;;;0.71;59.24;100099.34;5054654;28;20293;-87
2024/01/24 01:23:03;;;;;;;15.77;5.67;;;;;;;0.68;60.05;100104.53;5072267;28;20184;-87
2024/01/24 01:25:29;;;;;;;10.17;4.70;;;;;;;0.69;60.30;100097.63;5073771;28;20185;-86
2024/01/24 01:27:54;;;;;;;11.87;5.40;;;;;;;0.71;60.69;100094.19;5075972;28;20176;-86
2024/01/24 01:30:21;;;;;;;9.53;5.10;;;;;;;0.77;60.18;100093.34;5075625;28;20208;-87
2024/01/24 01:32:46;;;;;;;8.80;5.40;;;;;;;0.75;60.54;100089.91;5075574;28;20270;-86
2024/01/24 01:35:12;;;;;;;14.37;6.17;;;;;;;0.66;60.46;100092.47;5058092;28;20447;-87
2024/01/24 01:37:38;;;;;;;16.00;7.00;;;;;;;0.69;60.27;100095.91;5075360;28;20201;-87
2024/01/24 01:40:06;;;;;;;12.00;6.17;;;;;;;0.73;59.85;100094.22;5075248;28;20684;-87
2024/01/24 01:42:32;;;;;;;20.17;7.10;;;;;;;0.77;59.65;100088.19;5075153;28;20438;-87
2024/01/24 01:44:58;;;;;;;15.17;6.33;;;;;;;0.82;59.61;100086.47;5075045;28;20427;-87
2024/01/24 01:47:24;;;;;;;10.37;5.33;;;;;;;0.84;58.92;100089.94;5075456;28;20972;-87
2024/01/24 01:49:50;;;;;;;13.17;6.60;;;;;;;0.95;58.52;100085.63;5075190;28;20249;-87
2024/01/24 01:52:17;;;;;;;16.17;7.37;;;;;;;1.01;58.32;100083.94;5075672;28;20439;-86
2024/01/24 01:54:43;;;;;;;11.97;5.77;;;;;;;1.01;58.45;100083.06;5057380;28;20420;-87
2024/01/24 01:57:11;;;;;;;10.17;4.70;;;;;;;0.92;58.38;100080.47;5075722;28;20458;-87
2024/01/24 01:59:41;;;;;;;15.77;5.50;;;;;;;0.82;59.20;100071.00;5075216;28;20251;-87
2024/01/24 02:02:07;;;;;;;15.57;6.43;;;;;;;0.74;60.10;100083.00;5037527;28;20819;-87
2024/01/24 02:04:33;;;;;;;11.90;6.03;;;;;;;0.65;61.17;100073.56;5070580;28;20520;-87
2024/01/24 02:07:00;;;;;;;12.23;6.03;;;;;;;0.69;61.73;100069.25;5074970;28;20845;-87
2024/01/24 02:09:26;;;;;;;12.53;4.83;;;;;;;0.82;64.69;100069.28;5075605;28;20186;-86
2024/01/24 02:11:52;;;;;;;11.10;5.70;;;;;;;1.16;66.04;100075.31;5057359;28;20526;-86
2024/01/24 02:14:17;;;;;;;7.60;4.50;;;;;;;1.43;68.42;100077.03;5075268;28;20569;-86
2024/01/24 02:16:42;;;;;;;12.20;5.93;;;;;;;1.72;68.78;100070.97;5074889;28;20622;-86
2024/01/24 02:19:08;;;;;;;13.03;4.67;;;;;;;1.97;69.68;100068.28;5074554;28;20196;-86
2024/01/24 02:21:33;;;;;;;7.60;3.97;;;;;;;2.24;69.74;100060.44;5075111;28;20177;-86
2024/01/24 02:23:59;;;;;;;11.40;5.83;;;;;;;2.39;69.92;100062.94;5074549;28;20189;-86
2024/01/24 02:26:25;;;;;;;13.00;5.93;;;;;;;2.69;68.68;100069.69;5074731;28;20177;-86
2024/01/24 02:28:51;;;;;;;13.47;5.90;;;;;;;2.87;68.06;100047.16;5075245;28;20173;-86
2024/01/24 02:31:16;;;;;;;13.03;5.40;;;;;;;3.03;67.10;100064.28;5059298;28;20658;-86
2024/01/24 02:33:42;;;;;;;17.23;7.03;;;;;;;3.18;65.63;100059.84;5058374;28;20191;-87
2024/01/24 02:36:09;;;;;;;13.27;6.80;;;;;;;3.20;64.81;100061.53;5073857;28;20181;-87
2024/01/24 02:38:35;;;;;;;10.97;6.07;;;;;;;3.20;64.42;100061.53;5073766;28;20223;-86
2024/01/24 02:41:00;;;;;;;11.10;6.03;;;;;;;3.16;63.68;100059.00;5057209;28;20193;-86
2024/01/24 02:43:26;;;;;;;16.20;6.80;;;;;;;3.03;63.63;100050.47;5074561;28;20622;-87
2024/01/24 02:45:51;;;;;;;15.23;7.33;;;;;;;3.15;62.69;100049.50;5074900;28;20184;-87
2024/01/24 02:48:17;;;;;;;15.87;6.23;;;;;;;3.08;62.85;100046.97;5074448;28;20277;-87
2024/01/24 02:50:42;;;;;;;18.77;5.90;;;;;;;3.06;62.09;100046.16;5074249;28;20627;-86
2024/01/24 02:53:08;;;;;;;17.60;6.20;;;;;;;2.98;62.53;100054.84;5074428;28;20177;-87
2024/01/24 02:55:33;;;;;;;22.17;8.03;;;;;;;2.96;62.76;100060.00;5056411;28;20185;-87
2024/01/24 02:57:59;;;;;;;24.37;7.63;;;;;;;2.94;62.77;100054.00;5074317;28;20666;-86
2024/01/24 03:00:24;;;;;;;46.77;19.73;;;;;;;3.08;62.78;100059.94;5074219;28;20267;-87
2024/01/24 03:02:50;;;;;;;67.13;22.67;;;;;;;3.12;63.03;100059.91;5073872;28;20181;-87
2024/01/24 03:05:15;;;;;;;89.13;32.13;;;;;;;3.15;62.80;100060.72;5056285;28;20184;-87
2024/01/24 03:07:41;;;;;;;44.73;19.23;;;;;;;3.25;63.07;100059.78;5073480;28;20173;-87
2024/01/24 03:10:08;;;;;;;21.30;9.70;;;;;;;3.34;62.61;100051.06;5073872;28;20173;-87
2024/01/24 03:12:33;;;;;;;20.97;11.13;;;;;;;3.30;62.26;100049.41;5073598;28;20181;-87
2024/01/24 03:14:59;;;;;;;15.43;7.27;;;;;;;3.37;62.33;100048.47;5073801;28;20184;-87
2024/01/24 03:17:25;;;;;;;14.90;6.57;;;;;;;3.28;63.76;100054.56;5073662;28;20208;-87
2024/01/24 03:19:51;;;;;;;10.97;5.87;;;;;;;3.34;64.52;100058.84;5073774;28;20241;-87
2024/01/24 03:22:16;;;;;;;12.70;5.30;;;;;;;3.40;64.17;100056.22;5056004;28;20238;-87
2024/01/24 03:24:42;;;;;;;8.97;5.47;;;;;;;3.52;64.27;100056.94;5073681;28;20189;-87
2024/01/24 03:27:07;;;;;;;9.63;6.10;;;;;;;3.57;63.74;100064.66;5073540;28;20169;-86
2024/01/24 03:29:33;;;;;;;11.93;6.80;;;;;;;3.70;63.30;100061.09;5073580;28;20205;-87
2024/01/24 03:31:58;;;;;;;12.10;5.57;;;;;;;3.77;63.23;100052.38;5073590;28;20186;-87
2024/01/24 03:34:24;;;;;;;12.93;5.47;;;;;;;3.70;62.97;100063.69;5073724;28;20192;-87
2024/01/24 03:36:50;;;;;;;16.73;7.60;;;;;;;3.73;63.14;100063.66;5073297;28;20296;-87
2024/01/24 03:39:15;;;;;;;15.87;7.50;;;;;;;3.80;62.50;100060.09;5073178;28;20222;-87
2024/01/24 03:41:41;;;;;;;11.67;6.20;;;;;;;3.84;62.12;100053.16;5055355;28;20553;-87
2024/01/24 03:44:06;;;;;;;24.00;10.03;;;;;;;3.80;62.14;100059.28;5055734;28;20526;-87
2024/01/24 03:46:31;;;;;;;12.87;6.03;;;;;;;3.75;62.03;100058.47;5046893;28;20217;-87
2024/01/24 03:48:57;;;;;;;13.07;6.43;;;;;;;3.67;62.07;100063.69;5052929;28;20666;-87
2024/01/24 03:51:24;;;;;;;11.00;6.57;;;;;;;3.55;62.61;100058.66;5053465;28;20189;-87
2024/01/24 03:53:49;;;;;;;18.50;8.27;;;;;;;3.46;62.99;100061.34;5073116;28;20179;-87
2024/01/24 03:56:15;;;;;;;14.23;6.97;;;;;;;3.46;63.20;100072.53;5073498;28;20631;-87
2024/01/24 03:58:41;;;;;;;7.77;4.40;;;;;;;3.44;63.74;100070.84;5055393;28;20189;-86
2024/01/24 04:01:06;;;;;;;17.50;6.93;;;;;;;3.42;63.88;100078.66;5072891;28;20218;-87
2024/01/24 04:03:32;;;;;;;19.23;7.93;;;;;;;3.43;63.71;100092.47;5055402;28;20195;-87
2024/01/24 04:05:57;;;;;;;10.13;4.70;;;;;;;3.50;63.86;100091.53;5072790;28;20524;-87
2024/01/24 04:08:23;;;;;;;10.63;5.30;;;;;;;3.42;64.23;100101.97;5072836;28;20513;-87
2024/01/24 04:10:48;;;;;;;12.03;6.43;;;;;;;3.47;63.87;100101.91;5072929;28;20176;-87
2024/01/24 04:13:14;;;;;;;10.43;5.47;;;;;;;3.56;63.81;100101.84;5072583;28;20661;-86
2024/01/24 04:15:39;;;;;;;13.27;5.40;;;;;;;3.53;63.15;100107.94;5072962;28;20184;-87
2024/01/24 04:18:05;;;;;;;13.23;5.97;;;;;;;3.41;63.25;100120.97;5072859;28;20618;-87
2024/01/24 04:20:30;;;;;;;12.00;5.70;;;;;;;3.37;62.73;100124.47;5072616;28;20239;-87
2024/01/24 04:22:56;;;;;;;12.03;6.13;;;;;;;3.24;62.19;100116.78;5072848;28;20188;-86
2024/01/24 04:25:21;;;;;;;11.50;6.27;;;;;;;3.07;62.16;100129.84;5072687;28;20181;-87
2024/01/24 04:27:47;;;;;;;14.13;7.60;;;;;;;2.89;61.71;100125.66;5072999;28;20181;-87
2024/01/24 04:30:13;;;;;;;15.77;8.10;;;;;;;2.77;61.99;100136.09;5072794;28;20177;-86
2024/01/24 04:32:41;;;;;;;14.73;6.27;;;;;;;2.69;62.40;100134.41;5055382;28;20185;-87
2024/01/24 04:35:07;;;;;;;13.70;6.97;;;;;;;2.62;62.39;100135.31;5072530;28;20527;-87
2024/01/24 04:37:32;;;;;;;12.50;5.93;;;;;;;2.59;62.87;100138.78;5072887;28;20207;-87
2024/01/24 04:39:58;;;;;;;11.90;6.27;;;;;;;2.53;62.83;100140.53;5072256;28;20284;-87
2024/01/24 04:42:23;;;;;;;17.43;7.07;;;;;;;2.55;63.26;100136.19;5072701;28;20173;-87
2024/01/24 04:44:49;;;;;;;19.93;7.23;;;;;;;2.75;62.95;100137.81;5072598;28;20188;-87
2024/01/24 04:47:15;;;;;;;19.93;8.10;;;;;;;2.83;62.25;100136.03;5072895;28;20170;-87
2024/01/24 04:49:40;;;;;;;20.90;9.33;;;;;;;2.86;62.29;100136.03;5072873;28;20173;-88
2024/01/24 04:52:06;;;;;;;17.53;7.93;;;;;;;2.93;61.96;100139.47;5072243;28;20177;-87
2024/01/24 04:54:35;;;;;;;15.47;7.83;;;;;;;2.93;61.50;100132.56;5072561;28;20231;-88
2024/01/24 04:57:04;;;;;;;77.27;27.10;;;;;;;2.86;61.43;100141.22;5072529;28;20193;-88
2024/01/24 04:59:30;;;;;;;23.27;8.33;;;;;;;2.94;61.19;100134.25;5072463;28;20223;-88
2024/01/24 05:01:55;;;;;;;14.77;5.73;;;;;;;3.00;61.40;100129.06;5061200;28;20665;-87
2024/01/24 05:04:21;;;;;;;13.90;5.57;;;;;;;2.82;64.03;100142.09;5057157;28;20496;-88
2024/01/24 05:06:46;;;;;;;8.17;4.30;;;;;;;2.77;64.90;100132.66;5038450;28;20217;-87
2024/01/24 05:09:12;;;;;;;11.43;5.20;;;;;;;2.79;65.85;100134.34;5038652;28;20174;-87
2024/01/24 05:11:41;;;;;;;8.10;3.43;;;;;;;2.67;67.90;100137.03;5061733;28;20264;-88
2024/01/24 05:14:07;;;;;;;13.90;5.33;;;;;;;2.90;67.28;100142.06;5076119;28;20184;-87
2024/01/24 05:16:32;;;;;;;10.93;5.20;;;;;;;3.12;67.22;100146.22;5075985;28;20177;-87
2024/01/24 05:18:58;;;;;;;12.77;5.50;;;;;;;3.34;66.43;100144.34;5076020;28;20192;-87
2024/01/24 05:21:23;;;;;;;29.20;12.60;;;;;;;3.11;62.73;100147.13;5058313;28;20649;-87
2024/01/24 05:23:51;;;;;;;27.93;14.37;;;;;;;3.05;62.40;100148.00;5075432;28;20264;-87
2024/01/24 05:26:16;;;;;;;29.10;13.97;;;;;;;3.08;61.20;100142.81;5058246;28;20181;-88
2024/01/24 05:28:42;;;;;;;23.70;12.20;;;;;;;3.08;60.44;100148.00;5075420;28;20180;-87
2024/01/24 05:31:07;;;;;;;40.17;17.17;;;;;;;2.96;60.26;100155.81;5058968;28;20176;-88
2024/01/24 05:33:33;;;;;;;36.90;16.17;;;;;;;2.97;59.90;100165.31;5058143;28;20188;-88
2024/01/24 05:35:59;;;;;;;30.63;14.80;;;;;;;3.09;59.96;100154.88;5057945;28;20214;-88
2024/01/24 05:38:24;;;;;;;25.73;12.93;;;;;;;3.07;59.33;100158.34;5057960;28;20295;-88
2024/01/24 05:40:50;;;;;;;26.50;11.93;;;;;;;2.97;59.49;100157.56;5057859;28;20258;-87
2024/01/24 05:43:15;;;;;;;27.40;12.20;;;;;;;3.01;59.79;100158.41;5075482;28;20177;-88
2024/01/24 05:45:41;;;;;;;24.73;10.90;;;;;;;3.02;59.95;100167.88;5075345;28;20177;-88
2024/01/24 05:48:06;;;;;;;16.70;8.67;;;;;;;3.08;60.46;100166.13;5076007;28;20180;-88
2024/01/24 05:50:32;;;;;;;16.00;7.10;;;;;;;3.01;62.06;100169.59;5057662;28;20172;-89
2024/01/24 05:52:58;;;;;;;19.67;7.37;;;;;;;3.05;62.72;100163.56;5075349;28;20196;-89
2024/01/24 05:55:24;;;;;;;11.50;6.33;;;;;;;3.15;63.03;100168.66;5057642;28;20623;-89
2024/01/24 05:57:49;;;;;;;14.07;6.30;;;;;;;3.28;63.14;100172.88;5057241;28;20208;-89
2024/01/24 06:00:15;;;;;;;9.80;5.13;;;;;;;3.40;63.41;100175.41;5057926;28;20240;-88
2024/01/24 06:02:43;;;;;;;11.40;6.53;;;;;;;3.41;64.02;100179.69;5075103;28;20181;-88
2024/01/24 06:05:08;;;;;;;11.10;5.17;;;;;;;3.46;64.36;100185.75;5075164;28;20267;-88
2024/01/24 06:07:34;;;;;;;10.23;4.73;;;;;;;3.48;65.33;100184.00;5075033;28;20264;-88
2024/01/24 06:10:00;;;;;;;9.60;3.70;;;;;;;3.64;65.36;100175.22;5057273;28;20187;-88
2024/01/24 06:12:26;;;;;;;9.00;5.00;;;;;;;3.67;65.42;100177.78;5074843;28;20600;-87
2024/01/24 06:14:54;;;;;;;11.47;4.87;;;;;;;3.65;65.90;100182.97;5074107;28;20181;-88
2024/01/24 06:17:19;;;;;;;6.77;4.13;;;;;;;3.88;65.51;100174.16;5075127;28;20193;-88
2024/01/24 06:19:45;;;;;;;11.37;5.20;;;;;;;3.94;65.57;100177.53;5074901;28;20200;-88
2024/01/24 06:22:10;;;;;;;9.57;4.97;;;;;;;3.95;65.80;100186.19;5074944;28;20246;-87
2024/01/24 06:24:37;;;;;;;5.17;3.10;;;;;;;4.15;65.34;100184.25;5074360;28;20181;-87
2024/01/24 06:27:03;;;;;;;8.37;4.77;;;;;;;4.42;64.64;100180.53;5074760;28;20602;-87
2024/01/24 06:29:29;;;;;;;7.43;3.50;;;;;;;4.48;64.07;100183.06;5074870;28;20271;-86
2024/01/24 06:31:55;;;;;;;10.40;3.60;;;;;;;5.11;63.85;100177.03;5075219;28;20607;-86
2024/01/24 06:34:21;;;;;;;8.00;4.30;;;;;;;5.55;61.88;100182.41;5074600;28;20185;-86
2024/01/24 06:36:47;;;;;;;10.23;4.13;;;;;;;5.83;58.82;100179.38;5056903;28;20268;-86
2024/01/24 06:39:12;;;;;;;12.07;4.47;;;;;;;5.80;58.44;100193.31;5074179;28;20706;-86
2024/01/24 06:41:38;;;;;;;11.90;5.30;;;;;;;5.59;58.56;100189.31;5074338;28;20177;-86
2024/01/24 06:44:05;;;;;;;10.47;4.87;;;;;;;5.51;58.13;100190.28;5074313;28;20257;-86
2024/01/24 06:46:31;;;;;;;14.27;5.30;;;;;;;5.57;58.79;100193.69;5056708;28;20225;-86
2024/01/24 06:48:57;;;;;;;12.57;4.67;;;;;;;5.84;57.81;100196.72;5056766;28;20543;-86
2024/01/24 06:51:22;;;;;;;10.63;4.77;;;;;;;5.89;56.46;100193.19;5074101;28;20187;-86
2024/01/24 06:53:48;;;;;;;14.97;5.60;;;;;;;5.95;56.92;100200.00;5074245;28;20180;-86
2024/01/24 06:56:13;;;;;;;9.13;4.77;;;;;;;6.60;55.26;100197.06;5074124;28;20184;-86
2024/01/24 06:58:40;;;;;;;11.20;5.80;;;;;;;7.20;54.92;100196.69;5074342;28;20197;-87
2024/01/24 07:01:06;;;;;;;12.77;5.47;;;;;;;7.48;52.35;100189.97;5074633;28;20233;-87
2024/01/24 07:03:32;;;;;;;12.37;6.03;;;;;;;7.15;51.82;100196.81;5073605;28;20192;-87
2024/01/24 07:05:57;;;;;;;27.60;10.17;;;;;;;6.89;53.21;100193.03;5074531;28;20184;-87
2024/01/24 07:08:23;;;;;;;25.47;9.10;;;;;;;6.70;53.50;100197.75;5055923;28;20177;-87
2024/01/24 07:10:48;;;;;;;17.23;7.23;;;;;;;6.97;53.98;100193.75;5056255;28;20189;-87
2024/01/24 07:13:14;;;;;;;21.40;9.63;;;;;;;7.97;52.88;100174.81;5055882;28;20196;-87
2024/01/24 07:15:39;;;;;;;11.67;4.90;;;;;;;8.41;49.61;100176.28;5073811;28;20180;-87
2024/01/24 07:18:05;;;;;;;9.70;3.60;;;;;;;8.65;49.01;100165.16;5073525;28;20208;-87
2024/01/24 07:20:30;;;;;;;9.13;4.30;;;;;;;8.66;49.32;100160.78;5073720;28;20268;-87
2024/01/24 07:22:56;;;;;;;12.17;4.13;;;;;;;8.73;49.48;100159.69;5073037;28;20661;-87
2024/01/24 07:25:22;;;;;;;5.57;3.50;;;;;;;8.60;49.37;100161.81;5073511;28;20234;-87
2024/01/24 07:27:48;;;;;;;8.40;3.73;;;;;;;8.31;50.42;100155.66;5073724;28;20183;-86
2024/01/24 07:30:15;;;;;;;7.73;3.77;;;;;;;8.07;51.80;100158.00;5055762;28;20276;-86
2024/01/24 07:32:41;;;;;;;8.70;4.20;;;;;;;8.10;52.42;100153.63;5055932;28;20695;-86
2024/01/24 07:35:09;;;;;;;9.03;4.43;;;;;;;8.07;52.38;100153.72;5055909;28;20185;-86
2024/01/24 07:37:34;;;;;;;8.67;4.47;;;;;;;8.02;52.34;100161.63;5072977;28;20200;-86
2024/01/24 07:40:00;;;;;;;10.50;4.43;;;;;;;8.28;52.13;100159.22;5073301;28;20638;-87
2024/01/24 07:42:25;;;;;;;8.97;3.90;;;;;;;8.42;51.88;100158.84;5073393;28;20176;-86
2024/01/24 07:44:51;;;;;;;8.67;4.30;;;;;;;8.40;51.18;100163.28;5073387;28;20170;-86
2024/01/24 07:47:19;;;;;;;6.97;3.63;;;;;;;8.03;51.84;100161.63;5073090;28;20183;-86
2024/01/24 07:49:45;;;;;;;9.20;3.80;;;;;;;7.92;52.50;100174.06;5073610;28;20173;-86
2024/01/24 07:52:11;;;;;;;7.33;3.73;;;;;;;8.03;52.50;100179.91;5073559;28;20547;-86
2024/01/24 07:54:36;;;;;;;9.43;3.97;;;;;;;8.00;52.51;100185.19;5073145;28;20238;-87
2024/01/24 07:57:03;;;;;;;8.87;4.10;;;;;;;7.79;53.26;100195.28;5055429;28;20197;-87
2024/01/24 07:59:29;;;;;;;9.03;4.17;;;;;;;7.58;53.76;100198.41;5072483;28;20178;-86
2024/01/24 08:01:55;;;;;;;8.60;3.63;;;;;;;7.62;53.74;100190.50;5073483;28;20187;-87
2024/01/24 08:04:21;;;;;;;7.27;3.43;;;;;;;7.81;52.86;100186.53;5073206;28;20181;-87
2024/01/24 08:06:47;;;;;;;9.07;3.77;;;;;;;7.89;52.41;100187.19;5036795;28;20216;-87
2024/01/24 08:09:14;;;;;;;14.97;4.33;;;;;;;7.65;52.93;100194.78;5063663;28;20568;-86
2024/01/24 08:11:41;;;;;;;13.97;4.27;;;;;;;7.93;52.63;100194.06;5070028;28;20185;-86
2024/01/24 08:14:08;;;;;;;6.90;3.20;;;;;;;7.90;53.17;100183.72;5053141;28;20640;-88
2024/01/24 08:16:35;;;;;;;17.40;4.20;;;;;;;7.83;52.58;100203.03;5070200;28;20224;-86
2024/01/24 08:19:01;;;;;;;6.67;3.40;;;;;;;7.66;52.61;100194.75;5055302;28;20240;-87
2024/01/24 08:21:28;;;;;;;10.80;4.20;;;;;;;7.78;52.86;100193.59;5072198;28;20208;-87
2024/01/24 08:23:55;;;;;;;8.70;4.17;;;;;;;8.01;52.23;100197.34;5066446;28;20180;-87
2024/01/24 08:26:22;;;;;;;10.10;4.10;;;;;;;8.09;52.17;100204.13;5059131;28;20538;-86
2024/01/24 08:28:49;;;;;;;10.37;4.47;;;;;;;8.28;52.07;100206.25;5034743;28;20526;-86
2024/01/24 08:31:16;;;;;;;8.53;3.97;;;;;;;8.36;50.86;100209.50;5065628;28;20177;-87
2024/01/24 08:33:42;;;;;;;10.17;4.53;;;;;;;8.55;51.97;100204.66;5065831;28;20750;-86
2024/01/24 08:36:09;;;;;;;10.00;4.27;;;;;;;8.46;50.71;100210.16;5072201;28;20713;-87
2024/01/24 08:38:36;;;;;;;9.57;4.83;;;;;;;8.52;51.05;100217.78;5071430;28;20191;-87
2024/01/24 08:41:04;;;;;;;8.53;4.23;;;;;;;8.64;50.78;100209.63;5063037;28;20275;-86
2024/01/24 08:43:29;;;;;;;11.77;4.90;;;;;;;8.72;50.22;100197.22;5063187;28;20247;-87
2024/01/24 08:45:56;;;;;;;8.87;4.37;;;;;;;8.85;49.99;100198.59;5064223;28;20198;-87
2024/01/24 08:48:24;;;;;;;11.50;5.50;;;;;;;9.06;49.65;100194.50;5072416;28;20185;-87
2024/01/24 08:50:52;;;;;;;9.00;4.40;;;;;;;9.06;50.13;100197.97;5058288;28;20181;-86
2024/01/24 08:53:18;;;;;;;9.87;4.63;;;;;;;9.05;49.42;100209.31;5061872;28;20207;-87
2024/01/24 08:55:44;;;;;;;12.60;4.37;;;;;;;9.15;49.74;100202.91;5054109;28;20180;-86
2024/01/24 08:58:10;;;;;;;7.63;3.80;;;;;;;9.32;49.52;100202.41;5047468;28;20207;-88
2024/01/24 09:00:37;;;;;;;12.50;4.80;;;;;;;9.25;49.73;100199.09;5057129;28;20254;-87
2024/01/24 09:03:04;;;;;;;11.60;4.43;;;;;;;9.07;49.58;100204.03;5055209;28;20170;-86
2024/01/24 09:05:31;;;;;;;6.97;3.73;;;;;;;9.05;49.87;100201.47;5070448;28;20191;-87
2024/01/24 09:07:58;;;;;;;10.27;3.80;;;;;;;9.28;49.71;100203.38;5075127;28;20183;-86
2024/01/24 09:10:25;;;;;;;11.00;4.10;;;;;;;9.16;49.53;100209.88;5075200;28;20180;-87
2024/01/24 09:12:51;;;;;;;8.90;4.43;;;;;;;9.05;50.11;100206.69;5056560;28;20203;-86
2024/01/24 09:15:17;;;;;;;10.13;4.27;;;;;;;9.16;50.15;100209.00;5057422;28;20185;-86
2024/01/24 09:17:44;;;;;;;9.23;4.37;;;;;;;9.20;49.91;100208.00;5074880;28;20197;-86
2024/01/24 09:20:11;;;;;;;16.37;5.37;;;;;;;9.26;50.18;100208.69;5056570;28;20224;-86
2024/01/24 09:22:38;;;;;;;7.63;4.60;;;;;;;9.18;50.14;100202.81;5074174;28;20186;-86
2024/01/24 09:25:05;;;;;;;12.27;4.63;;;;;;;9.23;49.96;100200.91;5064863;28;20203;-87
2024/01/24 09:27:31;;;;;;;10.93;4.30;;;;;;;9.37;49.74;100195.28;5065625;28;20185;-86
2024/01/24 09:29:58;;;;;;;12.40;4.10;;;;;;;9.45;50.10;100187.19;5037297;28;20195;-86
2024/01/24 09:32:25;;;;;;;13.37;4.97;;;;;;;9.76;49.27;100178.31;5025278;28;20190;-86
2024/01/24 09:34:51;;;;;;;12.63;4.07;;;;;;;9.80;48.86;100186.94;5028842;28;20201;-86
2024/01/24 09:37:20;;;;;;;9.40;4.87;;;;;;;9.92;48.77;100180.41;5042268;28;20240;-86
2024/01/24 09:39:45;;;;;;;9.37;5.20;;;;;;;10.10;48.42;100177.16;5003001;28;1240246;-86
2024/01/24 09:42:22;;;;;;;8.33;4.43;;;;;;;10.32;48.46;100175.56;5054497;28;20181;-85
2024/01/24 09:44:51;;;;;;;8.10;4.17;;;;;;;10.35;47.63;100170.22;5058937;28;20654;-86
2024/01/24 09:47:22;;;;;;;10.90;4.77;;;;;;;10.39;47.79;100175.28;5042611;28;20257;-86
2024/01/24 09:49:50;;;;;;;9.97;4.63;;;;;;;10.58;46.94;100166.78;5023335;28;20190;-86
2024/01/24 09:52:25;;;;;;;8.17;4.97;;;;;;;10.38;47.88;100165.72;5053813;28;20552;-86
2024/01/24 09:55:00;;;;;;;11.63;4.10;;;;;;;10.22;47.89;100159.28;5027151;28;20654;-87
2024/01/24 09:57:30;;;;;;;9.73;5.20;;;;;;;10.40;47.94;100163.06;5048436;28;20297;-87
2024/01/24 09:59:58;;;;;;;14.27;4.47;;;;;;;10.58;48.52;100151.03;5057996;28;20185;-86
2024/01/24 10:02:26;;;;;;;10.50;4.57;;;;;;;10.62;47.12;100150.88;5046623;28;20185;-86
2024/01/24 10:04:54;;;;;;;11.60;4.43;;;;;;;10.84;46.76;100146.56;5041031;28;20233;-86
2024/01/24 10:07:21;;;;;;;7.87;3.93;;;;;;;10.82;46.92;100142.28;5051858;28;20273;-87
2024/01/24 10:09:47;;;;;;;9.80;4.43;;;;;;;10.90;47.22;100140.22;5049538;28;20197;-86
2024/01/24 10:12:14;;;;;;;7.13;3.53;;;;;;;10.88;46.42;100137.66;5054911;28;20185;-86
2024/01/24 10:14:41;;;;;;;10.30;4.10;;;;;;;10.69;46.99;100138.41;5033583;28;20197;-87
2024/01/24 10:17:11;;;;;;;7.83;4.30;;;;;;;10.52;47.75;100132.91;5049525;28;20223;-87
2024/01/24 10:19:38;;;;;;;10.20;4.43;;;;;;;10.83;47.19;100125.59;5055251;28;20178;-87
2024/01/24 10:22:05;;;;;;;8.77;3.50;;;;;;;11.17;46.38;100119.91;5038664;28;20178;-87
2024/01/24 10:24:34;;;;;;;7.90;3.80;;;;;;;11.21;45.85;100108.41;5061003;28;20247;-87
2024/01/24 10:27:01;;;;;;;10.10;4.63;;;;;;;10.89;45.22;100105.25;5051248;28;20641;-88
2024/01/24 10:29:29;;;;;;;7.17;3.23;;;;;;;10.82;46.16;100110.81;5055294;28;20181;-87
2024/01/24 10:31:56;;;;;;;6.03;3.10;;;;;;;10.99;46.21;100103.13;5056489;28;20558;-86
2024/01/24 10:34:27;;;;;;;8.63;3.63;;;;;;;11.15;46.73;100092.88;5043241;28;20185;-86
2024/01/24 10:36:53;;;;;;;10.17;3.57;;;;;;;11.34;46.37;100086.84;5046680;28;20251;-87
2024/01/24 10:39:23;;;;;;;11.83;4.83;;;;;;;11.48;45.27;100092.38;5046521;28;20194;-87
2024/01/24 10:41:54;;;;;;;9.27;3.57;;;;;;;11.55;45.18;100079.88;5056218;28;20225;-86
2024/01/24 10:44:30;;;;;;;9.07;3.93;;;;;;;11.62;45.78;100079.53;5046121;28;20178;-87
2024/01/24 10:46:56;;;;;;;8.03;3.20;;;;;;;11.52;45.54;100070.34;5061668;28;20174;-87
2024/01/24 10:49:24;;;;;;;9.17;3.57;;;;;;;11.36;44.53;100071.88;5036564;28;20280;-88
2024/01/24 10:51:50;;;;;;;6.37;3.60;;;;;;;11.30;45.58;100066.03;5054483;28;20251;-88
2024/01/24 10:54:17;;;;;;;11.73;3.87;;;;;;;11.31;45.74;100063.34;5055352;28;20261;-87
2024/01/24 10:56:48;;;;;;;8.43;3.53;;;;;;;11.20;44.97;100057.69;5050104;28;20201;-87
2024/01/24 10:59:14;;;;;;;6.60;3.27;;;;;;;11.05;45.84;100058.31;5056027;28;20174;-87
2024/01/24 11:01:40;;;;;;;6.90;3.77;;;;;;;11.23;45.78;100051.44;5037061;28;20255;-87
2024/01/24 11:04:07;;;;;;;11.83;4.50;;;;;;;11.49;45.30;100053.84;5027909;28;20669;-87
2024/01/24 11:06:34;;;;;;;9.17;4.00;;;;;;;11.61;45.63;100055.97;5049062;28;20177;-88
2024/01/24 11:09:24;;;;;;;8.50;3.83;;;;;;;11.39;45.77;100053.41;5053453;28;20229;-88
2024/01/24 11:11:56;;;;;;;9.80;4.13;;;;;;;11.61;45.16;100050.72;5046649;28;20255;-87
2024/01/24 11:14:48;;;;;;;8.03;4.23;;;;;;;11.62;44.97;100045.41;5045552;28;20247;-87
2024/01/24 11:17:14;;;;;;;12.47;4.27;;;;;;;11.77;44.94;100043.06;5070629;28;20213;-87
2024/01/24 11:19:39;;;;;;;11.27;4.33;;;;;;;11.87;44.59;100045.22;5073971;28;20535;-87
2024/01/24 11:22:08;;;;;;;8.83;4.07;;;;;;;12.15;44.77;100039.63;5056023;28;20272;-88